| time (UTC) | temp F | wind direction | speed MPH | gust MPH | rain 1hr in | rain 24hr in | rain mn in | humidity % | barometer mb |
| 20260510214853 | 59 | 331 | 4.0 | 10.0 | 0.00 | 0.15 | 0.00 | 40 | 1014.9 |
| 20260510214502 | 58 | 336 | 3.0 | 7.0 | 0.00 | 0.15 | 0.00 | 40 | 1015.2 |
| 20260510213952 | 58 | 329 | 5.0 | 8.0 | 0.00 | 0.15 | 0.00 | 40 | 1014.9 |
| 20260510213102 | 59 | 4 | 4.0 | 9.0 | 0.00 | 0.15 | 0.00 | 39 | 1015.0 |
| 20260510213052 | 59 | 338 | 5.0 | 10.0 | 0.00 | 0.15 | 0.00 | 39 | 1014.7 |
| 20260510212152 | 59 | 343 | 4.0 | 12.0 | 0.00 | 0.15 | 0.00 | 38 | 1014.4 |
| 20260510211502 | 59 | 326 | 3.0 | 9.0 | 0.00 | 0.15 | 0.00 | 40 | 1014.8 |
| 20260510211253 | 60 | 330 | 4.0 | 9.0 | 0.00 | 0.15 | 0.00 | 40 | 1014.5 |
| 20260510210353 | 60 | 326 | 4.0 | 17.0 | 0.00 | 0.15 | 0.00 | 39 | 1014.5 |
| 20260510205452 | 60 | 331 | 4.0 | 10.0 | 0.00 | 0.15 | 0.00 | 41 | 1014.4 |
| 20260510204553 | 60 | 337 | 2.0 | 8.0 | 0.00 | 0.15 | 0.00 | 41 | 1014.4 |
| 20260510204502 | 60 | 326 | 4.0 | 8.0 | 0.00 | 0.15 | 0.00 | 42 | 1014.6 |
| 20260510203652 | 60 | 334 | 4.0 | 10.0 | 0.00 | 0.15 | 0.00 | 40 | 1014.4 |
| 20260510203103 | 60 | 11 | 4.0 | 11.0 | 0.00 | 0.15 | 0.00 | 43 | 1014.5 |
| 20260510202752 | 61 | 337 | 5.0 | 12.0 | 0.00 | 0.15 | 0.00 | 40 | 1014.3 |
| 20260510201855 | 61 | 329 | 5.0 | 13.0 | 0.00 | 0.15 | 0.00 | 42 | 1014.2 |
| 20260510201502 | 60 | 8 | 4.0 | 9.0 | 0.00 | 0.15 | 0.00 | 40 | 1014.3 |
| 20260510200952 | 61 | 328 | 5.0 | 10.0 | 0.00 | 0.15 | 0.00 | 40 | 1014.1 |
| 20260510200121 | 60 | 340 | 6.0 | 13.0 | 0.00 | 0.15 | 0.00 | 41 | 1014.2 |
| 20260510200052 | 61 | 335 | 4.0 | 12.0 | 0.00 | 0.15 | 0.00 | 41 | 1014.0 |
| 20260510194504 | 60 | 343 | 3.0 | 8.0 | 0.00 | 0.15 | 0.00 | 44 | 1014.0 |
| 20260510194252 | 61 | 323 | 4.0 | 10.0 | 0.00 | 0.15 | 0.00 | 42 | 1013.9 |
| 20260510193352 | 61 | 338 | 3.0 | 9.0 | 0.00 | 0.15 | 0.00 | 43 | 1013.9 |
| 20260510193120 | 61 | 353 | 3.0 | 8.0 | 0.00 | 0.15 | 0.00 | 46 | 1014.2 |
| 20260510191552 | 60 | 352 | 3.0 | 7.0 | 0.00 | 0.15 | 0.00 | 44 | 1014.0 |
| 20260510191505 | 60 | 1 | 2.0 | 7.0 | 0.00 | 0.15 | 0.00 | 45 | 1014.2 |
| 20260510190653 | 61 | 282 | 2.0 | 6.0 | 0.00 | 0.15 | 0.00 | 45 | 1014.1 |
| 20260510190115 | 60 | 243 | 2.0 | 8.0 | 0.00 | 0.15 | 0.00 | 48 | 1014.4 |
| 20260510185753 | 60 | 326 | 3.0 | 8.0 | 0.00 | 0.15 | 0.00 | 45 | 1014.1 |
| 20260510184852 | 60 | 331 | 3.0 | 8.0 | 0.00 | 0.16 | 0.00 | 47 | 1014.0 |
| 20260510184502 | 60 | 325 | 2.0 | 10.0 | 0.00 | 0.20 | 0.00 | 48 | 1014.5 |
| 20260510183952 | 60 | 339 | 4.0 | 9.0 | 0.00 | 0.16 | 0.00 | 48 | 1014.1 |
| 20260510183102 | 58 | 330 | 5.0 | 8.0 | 0.00 | 0.20 | 0.00 | 54 | 1014.4 |
| 20260510183052 | 58 | 347 | 4.0 | 8.0 | 0.00 | 0.17 | 0.00 | 52 | 1014.1 |
| 20260510181503 | 58 | 4 | 4.0 | 9.0 | 0.00 | 0.20 | 0.00 | 53 | 1014.4 |
| 20260510181252 | 58 | 332 | 5.0 | 10.0 | 0.00 | 0.19 | 0.00 | 52 | 1014.1 |
| 20260510180352 | 58 | 329 | 4.0 | 11.0 | 0.00 | 0.20 | 0.00 | 53 | 1014.1 |
| 20260510180107 | 58 | 181 | 3.0 | 11.0 | 0.00 | 0.20 | 0.00 | 54 | 1014.5 |
| 20260510175453 | 58 | 345 | 3.0 | 7.0 | 0.00 | 0.20 | 0.00 | 54 | 1014.1 |
| 20260510174552 | 59 | 335 | 3.0 | 7.0 | 0.00 | 0.21 | 0.00 | 52 | 1014.2 |
| 20260510174503 | 58 | 355 | 3.0 | 7.0 | 0.00 | 0.26 | 0.00 | 51 | 1014.5 |
| 20260510173652 | 60 | 339 | 3.0 | 9.0 | 0.00 | 0.21 | 0.00 | 51 | 1014.2 |
| 20260510173105 | 59 | 325 | 2.0 | 6.0 | 0.00 | 0.26 | 0.00 | 51 | 1014.4 |
| 20260510172752 | 60 | 312 | 3.0 | 7.0 | 0.00 | 0.22 | 0.00 | 51 | 1014.1 |
| 20260510171852 | 60 | 328 | 3.0 | 7.0 | 0.00 | 0.23 | 0.00 | 53 | 1014.1 |
| 20260510171503 | 59 | 290 | 3.0 | 10.0 | 0.00 | 0.26 | 0.00 | 51 | 1014.4 |
| 20260510170952 | 60 | 344 | 3.0 | 10.0 | 0.00 | 0.24 | 0.00 | 51 | 1014.1 |
| 20260510170104 | 59 | 34 | 2.0 | 7.0 | 0.00 | 0.26 | 0.00 | 54 | 1014.3 |
| 20260510165152 | 58 | 356 | 3.0 | 5.0 | 0.00 | 0.27 | 0.00 | 59 | 1014.0 |
| 20260510164503 | 57 | 112 | 1.0 | 6.0 | 0.00 | 0.30 | 0.00 | 64 | 1014.4 |
| 20260510164252 | 57 | 341 | 3.0 | 6.0 | 0.00 | 0.28 | 0.00 | 67 | 1014.1 |
| 20260510163102 | 55 | 330 | 1.0 | 5.0 | 0.00 | 0.30 | 0.00 | 64 | 1014.6 |
| 20260510161552 | 56 | 322 | 2.0 | 5.0 | 0.00 | 0.30 | 0.00 | 66 | 1014.0 |
| 20260510161506 | 55 | 329 | 2.0 | 5.0 | 0.00 | 0.30 | 0.00 | 65 | 1014.5 |
| 20260510160652 | 56 | 321 | 3.0 | 9.0 | 0.00 | 0.30 | 0.00 | 70 | 1014.1 |
| 20260510160106 | 55 | 354 | 3.0 | 6.0 | 0.00 | 0.30 | 0.00 | 70 | 1014.5 |
| 20260510155752 | 55 | 317 | 2.0 | 6.0 | 0.00 | 0.30 | 0.00 | 72 | 1014.1 |
| 20260510154852 | 54 | 335 | 3.0 | 11.0 | 0.00 | 0.30 | 0.00 | 72 | 1014.2 |
| 20260510154502 | 53 | 281 | 1.0 | 5.0 | 0.00 | 0.32 | 0.00 | 72 | 1014.6 |
| 20260510153952 | 53 | 339 | 3.0 | 6.0 | 0.00 | 0.31 | 0.00 | 72 | 1014.1 |
| 20260510153103 | 53 | 345 | 3.0 | 6.0 | 0.00 | 0.32 | 0.00 | 72 | 1014.5 |
| 20260510153052 | 53 | 337 | 3.0 | 6.0 | 0.00 | 0.31 | 0.00 | 72 | 1014.0 |
| 20260510151509 | 53 | 311 | 4.0 | 8.0 | 0.00 | 0.32 | 0.00 | 73 | 1014.4 |
| 20260510151252 | 53 | 335 | 5.0 | 9.0 | 0.00 | 0.32 | 0.00 | 73 | 1014.0 |
| 20260510150353 | 54 | 339 | 5.0 | 10.0 | 0.00 | 0.32 | 0.00 | 75 | 1013.9 |
| 20260510150125 | 53 | 288 | 5.0 | 9.0 | 0.00 | 0.32 | 0.00 | 75 | 1014.2 |
| 20260510145452 | 54 | 329 | 5.0 | 10.0 | 0.00 | 0.32 | 0.00 | 75 | 1013.6 |
| 20260510144552 | 53 | 339 | 5.0 | 11.0 | 0.00 | 0.32 | 0.00 | 78 | 1013.6 |
| 20260510144502 | 52 | 333 | 4.0 | 10.0 | 0.00 | 0.33 | 0.00 | 80 | 1014.2 |
| 20260510143652 | 53 | 341 | 6.0 | 11.0 | 0.00 | 0.32 | 0.00 | 81 | 1013.1 |
| 20260510143101 | 52 | 352 | 5.0 | 12.0 | 0.00 | 0.33 | 0.00 | 85 | 1013.8 |
| 20260510141852 | 52 | 334 | 5.0 | 10.0 | 0.00 | 0.32 | 0.00 | 88 | 1013.0 |
| 20260510141507 | 52 | 342 | 5.0 | 10.0 | 0.00 | 0.33 | 0.00 | 89 | 1013.4 |
| 20260510140952 | 52 | 334 | 5.0 | 9.0 | 0.00 | 0.32 | 0.00 | 90 | 1013.0 |
| 20260510140052 | 50 | 332 | 5.0 | 9.0 | 0.00 | 0.33 | 0.00 | 91 | 1012.9 |
| 20260510135152 | 50 | 327 | 4.0 | 8.0 | 0.00 | 0.33 | 0.00 | 91 | 1012.8 |
| 20260510134503 | 50 | 334 | 3.0 | 12.0 | 0.00 | 0.34 | 0.00 | 91 | 1013.3 |
| 20260510134252 | 50 | 327 | 4.0 | 11.0 | 0.00 | 0.33 | 0.00 | 90 | 1012.8 |
| 20260510133352 | 53 | 328 | 3.0 | 8.0 | 0.00 | 0.33 | 0.00 | 91 | 1012.5 |
| 20260510133110 | 53 | 297 | 2.0 | 7.0 | 0.00 | 0.34 | 0.00 | 93 | 1013.2 |
| 20260510132452 | 52 | 347 | 2.0 | 7.0 | 0.00 | 0.34 | 0.00 | 95 | 1012.5 |
| 20260510131552 | 52 | 191 | 1.0 | 6.0 | 0.00 | 0.34 | 0.00 | 96 | 1012.5 |
| 20260510131502 | 52 | 314 | 0.0 | 6.0 | 0.00 | 0.34 | 0.00 | 96 | 1013.0 |
| 20260510130652 | 52 | 331 | 2.0 | 5.0 | 0.00 | 0.34 | 0.00 | 97 | 1012.4 |
| 20260510124852 | 51 | 336 | 1.0 | 3.0 | 0.00 | 0.34 | 0.00 | 98 | 1012.1 |
| 20260510124504 | 50 | 5 | 0.0 | 2.0 | 0.00 | 0.38 | 0.00 | 98 | 1012.7 |
| 20260510123103 | 50 | 152 | 0.0 | 3.0 | 0.00 | 0.38 | 0.00 | 98 | 1012.5 |
| 20260510123052 | 50 | 151 | 0.0 | 2.0 | 0.00 | 0.35 | 0.00 | 98 | 1012.0 |
| 20260510122152 | 50 | 10 | 0.0 | 2.0 | 0.00 | 0.36 | 0.00 | 98 | 1012.0 |
| 20260510121502 | 49 | 333 | 0.0 | 3.0 | 0.00 | 0.38 | 0.00 | 98 | 1012.7 |
| 20260510121252 | 50 | 149 | 0.0 | 3.0 | 0.00 | 0.37 | 0.00 | 98 | 1012.2 |
| 20260510120352 | 49 | 141 | 0.0 | 1.0 | 0.00 | 0.38 | 0.00 | 98 | 1012.2 |
| 20260510115452 | 49 | 142 | 0.0 | 1.0 | 0.00 | 0.39 | 0.00 | 98 | 1012.2 |
| 20260510114552 | 49 | 163 | 0.0 | 1.0 | 0.00 | 0.39 | 0.00 | 98 | 1012.0 |
| 20260510114502 | 48 | 163 | 0.0 | 1.0 | 0.00 | 0.40 | 0.00 | 98 | 1012.5 |
| 20260510113653 | 48 | 0 | 0.0 | 0.0 | 0.00 | 0.39 | 0.00 | 98 | 1011.8 |
| 20260510113103 | 47 | 163 | 0.0 | 0.0 | 0.00 | 0.40 | 0.00 | 98 | 1012.4 |
| 20260510112752 | 48 | 0 | 0.0 | 0.0 | 0.00 | 0.39 | 0.00 | 98 | 1011.8 |
| 20260510111852 | 48 | 0 | 0.0 | 0.0 | 0.00 | 0.39 | 0.00 | 98 | 1011.7 |
| 20260510111502 | 47 | 163 | 0.0 | 1.0 | 0.00 | 0.40 | 0.00 | 98 | 1012.1 |
| 20260510110952 | 48 | 163 | 0.0 | 1.0 | 0.00 | 0.39 | 0.00 | 98 | 1011.4 |
| 20260510110107 | 47 | 162 | 0.0 | 1.0 | 0.00 | 0.40 | 0.00 | 98 | 1012.0 |
| 20260510110052 | 48 | 0 | 0.0 | 0.0 | 0.00 | 0.40 | 0.00 | 98 | 1011.4 |
| 20260510105152 | 47 | 0 | 0.0 | 0.0 | 0.00 | 0.40 | 0.00 | 98 | 1011.0 |
| 20260510104503 | 47 | 162 | 0.0 | 0.0 | 0.00 | 0.48 | 0.00 | 98 | 1011.7 |
| 20260510104252 | 47 | 0 | 0.0 | 0.0 | 0.00 | 0.41 | 0.00 | 98 | 1011.1 |
| 20260510103352 | 47 | 0 | 0.0 | 0.0 | 0.00 | 0.42 | 0.00 | 98 | 1010.8 |
| 20260510103102 | 46 | 162 | 0.0 | 0.0 | 0.00 | 0.48 | 0.00 | 98 | 1011.5 |
| 20260510102452 | 47 | 0 | 0.0 | 0.0 | 0.00 | 0.44 | 0.00 | 98 | 1010.6 |
| 20260510101553 | 47 | 0 | 0.0 | 0.0 | 0.00 | 0.46 | 0.00 | 98 | 1010.4 |
| 20260510101502 | 46 | 162 | 0.0 | 0.0 | 0.00 | 0.48 | 0.00 | 98 | 1011.1 |
| 20260510100652 | 47 | 0 | 0.0 | 0.0 | 0.00 | 0.48 | 0.00 | 98 | 1010.4 |
| 20260510100105 | 46 | 162 | 0.0 | 1.0 | 0.00 | 0.48 | 0.00 | 98 | 1011.0 |
| 20260510095752 | 47 | 0 | 0.0 | 0.0 | 0.00 | 0.49 | 0.00 | 98 | 1010.3 |
| 20260510094852 | 47 | 162 | 0.0 | 1.0 | 0.00 | 0.49 | 0.00 | 98 | 1010.2 |
| 20260510094504 | 46 | 162 | 0.0 | 1.0 | 0.00 | 0.52 | 0.00 | 98 | 1010.8 |
| 20260510093952 | 47 | 0 | 0.0 | 0.0 | 0.00 | 0.50 | 0.00 | 98 | 1010.0 |
| 20260510093105 | 46 | 163 | 0.0 | 0.0 | 0.00 | 0.52 | 0.00 | 98 | 1010.7 |
| 20260510093052 | 47 | 0 | 0.0 | 0.0 | 0.00 | 0.50 | 0.00 | 98 | 1010.0 |
| 20260510092152 | 47 | 166 | 2.0 | 4.0 | 0.00 | 0.51 | 0.00 | 98 | 1009.8 |
| 20260510091506 | 46 | 162 | 1.0 | 4.0 | 0.00 | 0.52 | 0.00 | 98 | 1010.4 |
| 20260510091252 | 47 | 168 | 2.0 | 4.0 | 0.00 | 0.51 | 0.00 | 98 | 1009.7 |
| 20260510090352 | 46 | 163 | 0.0 | 3.0 | 0.00 | 0.52 | 0.00 | 98 | 1009.6 |
| 20260510090106 | 46 | 163 | 0.0 | 2.0 | 0.00 | 0.52 | 0.00 | 98 | 1010.2 |
| 20260510085452 | 46 | 158 | 0.0 | 1.0 | 0.00 | 0.52 | 0.00 | 98 | 1009.5 |
| 20260510084553 | 46 | 0 | 0.0 | 0.0 | 0.00 | 0.53 | 0.00 | 98 | 1009.7 |
| 20260510084502 | 45 | 162 | 0.0 | 1.0 | 0.00 | 0.56 | 0.00 | 98 | 1010.4 |
| 20260510083102 | 45 | 162 | 1.0 | 2.0 | 0.00 | 0.56 | 0.00 | 98 | 1010.2 |
| 20260510082752 | 46 | 0 | 0.0 | 0.0 | 0.00 | 0.56 | 0.00 | 98 | 1009.5 |
| 20260510081852 | 46 | 158 | 0.0 | 2.0 | 0.00 | 0.57 | 0.00 | 98 | 1009.5 |
| 20260510081503 | 45 | 160 | 0.0 | 2.0 | 0.00 | 0.56 | 0.00 | 98 | 1010.2 |
| 20260510080952 | 46 | 0 | 0.0 | 0.0 | 0.00 | 0.57 | 0.00 | 97 | 1009.5 |
| 20260510080052 | 46 | 0 | 0.0 | 0.0 | 0.00 | 0.57 | 0.00 | 97 | 1009.4 |
| 20260510075152 | 46 | 0 | 0.0 | 0.0 | 0.00 | 0.57 | 0.00 | 97 | 1009.3 |
| 20260510074503 | 46 | 142 | 0.0 | 0.0 | 0.00 | 0.59 | 0.00 | 97 | 1010.0 |
| 20260510074252 | 46 | 0 | 0.0 | 0.0 | 0.00 | 0.57 | 0.00 | 97 | 1009.3 |
| 20260510073352 | 47 | 152 | 0.0 | 2.0 | 0.00 | 0.57 | 0.00 | 97 | 1009.3 |
| 20260510073103 | 46 | 143 | 0.0 | 3.0 | 0.00 | 0.59 | 0.00 | 97 | 1010.1 |
| 20260510072452 | 47 | 162 | 1.0 | 2.0 | 0.00 | 0.58 | 0.00 | 97 | 1009.3 |
| 20260510071502 | 46 | 158 | 1.0 | 3.0 | 0.00 | 0.59 | 0.00 | 97 | 1010.0 |
| 20260510070652 | 47 | 165 | 2.0 | 4.0 | 0.00 | 0.59 | 0.00 | 97 | 1009.2 |
| 20260510070112 | 46 | 169 | 2.0 | 4.0 | 0.00 | 0.59 | 0.00 | 97 | 1009.8 |
| 20260510065752 | 46 | 163 | 2.0 | 4.0 | 0.00 | 0.59 | 0.00 | 97 | 1009.2 |
| 20260510064853 | 46 | 162 | 2.0 | 4.0 | 0.00 | 0.59 | 0.00 | 98 | 1009.1 |
| 20260510064502 | 46 | 166 | 1.0 | 4.0 | 0.00 | 0.59 | 0.00 | 98 | 1009.8 |
| 20260510063952 | 46 | 155 | 1.0 | 3.0 | 0.00 | 0.59 | 0.00 | 98 | 1009.2 |
| 20260510063103 | 46 | 150 | 0.0 | 3.0 | 0.00 | 0.59 | 0.00 | 98 | 1010.0 |
| 20260510062152 | 46 | 161 | 2.0 | 3.0 | 0.00 | 0.59 | 0.00 | 98 | 1009.3 |
| 20260510061503 | 46 | 166 | 1.0 | 4.0 | 0.00 | 0.59 | 0.00 | 98 | 1010.1 |
| 20260510061252 | 46 | 165 | 3.0 | 4.0 | 0.00 | 0.59 | 0.00 | 98 | 1009.4 |
| 20260510060352 | 46 | 162 | 2.0 | 4.0 | 0.00 | 0.59 | 0.00 | 97 | 1009.3 |
| 20260510060104 | 45 | 163 | 2.0 | 3.0 | 0.00 | 0.59 | 0.00 | 97 | 1010.1 |
| 20260510055452 | 46 | 164 | 2.0 | 3.0 | 0.00 | 0.59 | 0.00 | 97 | 1009.4 |
| 20260510054552 | 46 | 162 | 2.0 | 3.0 | 0.00 | 0.60 | 0.00 | 97 | 1009.3 |
| 20260510054503 | 45 | 172 | 2.0 | 4.0 | 0.00 | 0.64 | 0.00 | 97 | 1009.9 |
| 20260510053652 | 46 | 166 | 2.0 | 4.0 | 0.00 | 0.60 | 0.00 | 97 | 1009.2 |
| 20260510053101 | 45 | 166 | 2.0 | 4.0 | 0.00 | 0.64 | 0.00 | 97 | 1009.9 |
| 20260510052752 | 46 | 166 | 2.0 | 4.0 | 0.00 | 0.61 | 0.00 | 97 | 1009.3 |
| 20260510051852 | 46 | 164 | 2.0 | 3.0 | 0.00 | 0.62 | 0.00 | 97 | 1009.2 |
| 20260510051503 | 46 | 155 | 1.0 | 4.0 | 0.00 | 0.64 | 0.00 | 97 | 1009.8 |
| 20260510050952 | 46 | 168 | 2.0 | 5.0 | 0.00 | 0.63 | 0.00 | 97 | 1009.3 |
| 20260510050103 | 46 | 158 | 2.0 | 5.0 | 0.00 | 0.64 | 0.00 | 97 | 1010.0 |
| 20260510050052 | 47 | 170 | 3.0 | 5.0 | 0.00 | 0.64 | 0.00 | 97 | 1009.3 |
| 20260510045152 | 47 | 166 | 3.0 | 6.0 | 0.00 | 0.65 | 0.00 | 96 | 1009.4 |
| 20260510044506 | 47 | 176 | 3.0 | 6.0 | 0.01 | 0.72 | 0.00 | 96 | 1010.1 |
| 20260510044251 | 47 | 164 | 2.0 | 4.0 | 0.01 | 0.66 | 0.00 | 96 | 1009.6 |
| 20260510043352 | 47 | 167 | 3.0 | 6.0 | 0.02 | 0.67 | 0.00 | 96 | 1009.5 |
| 20260510043111 | 47 | 172 | 2.0 | 6.0 | 0.02 | 0.72 | 0.00 | 96 | 1010.1 |
| 20260510042453 | 47 | 166 | 2.0 | 6.0 | 0.03 | 0.68 | 0.00 | 96 | 1009.3 |
| 20260510041551 | 47 | 166 | 2.0 | 6.0 | 0.06 | 0.69 | 0.00 | 96 | 1009.4 |
| 20260510041503 | 47 | 204 | 1.0 | 6.0 | 0.05 | 0.72 | 0.00 | 96 | 1010.1 |
| 20260510040652 | 47 | 154 | 2.0 | 3.0 | 0.07 | 0.70 | 0.00 | 96 | 1009.7 |
| 20260510040104 | 47 | 163 | 1.0 | 5.0 | 0.08 | 0.72 | 0.00 | 96 | 1010.2 |
| 20260510035752 | 47 | 166 | 2.0 | 5.0 | 0.09 | 0.72 | 0.72 | 96 | 1009.3 |
| 20260510034852 | 47 | 166 | 3.0 | 7.0 | 0.10 | 0.73 | 0.72 | 96 | 1009.4 |
| 20260510034504 | 46 | 153 | 2.0 | 9.0 | 0.09 | 0.74 | 0.71 | 96 | 1010.1 |
| 20260510033128 | 46 | 135 | 0.0 | 1.0 | 0.10 | 0.73 | 0.70 | 96 | 1010.6 |
| 20260510033052 | 47 | 98 | 0.0 | 1.0 | 0.11 | 0.72 | 0.70 | 96 | 1009.9 |
| 20260510031503 | 46 | 111 | 0.0 | 3.0 | 0.09 | 0.69 | 0.66 | 95 | 1010.7 |
| 20260510031252 | 47 | 127 | 1.0 | 3.0 | 0.09 | 0.69 | 0.66 | 95 | 1010.2 |
| 20260510030351 | 47 | 355 | 1.0 | 4.0 | 0.07 | 0.67 | 0.64 | 95 | 1010.3 |
| 20260510030105 | 47 | 316 | 1.0 | 3.0 | 0.07 | 0.67 | 0.64 | 95 | 1010.9 |
| 20260510024552 | 47 | 350 | 3.0 | 7.0 | 0.05 | 0.66 | 0.62 | 93 | 1010.3 |
| 20260510024503 | 47 | 8 | 2.0 | 6.0 | 0.05 | 0.71 | 0.62 | 93 | 1011.0 |
| 20260510023652 | 48 | 325 | 3.0 | 8.0 | 0.04 | 0.66 | 0.61 | 92 | 1010.2 |
| 20260510023103 | 48 | 358 | 2.0 | 15.0 | 0.02 | 0.68 | 0.59 | 90 | 1010.9 |
| 20260510022751 | 49 | 324 | 7.0 | 14.0 | 0.00 | 0.64 | 0.57 | 89 | 1009.8 |
| 20260510021504 | 51 | 60 | 5.0 | 9.0 | 0.00 | 0.66 | 0.56 | 89 | 1010.2 |
| 20260510020952 | 52 | 160 | 0.0 | 1.0 | 0.00 | 0.66 | 0.57 | 89 | 1008.8 |
| 20260510020105 | 52 | 161 | 0.0 | 1.0 | 0.00 | 0.66 | 0.56 | 88 | 1009.4 |
| 20260510020052 | 52 | 156 | 0.0 | 1.0 | 0.00 | 0.66 | 0.57 | 88 | 1008.8 |
| 20260510015152 | 52 | 158 | 1.0 | 3.0 | 0.00 | 0.67 | 0.57 | 87 | 1008.6 |
| 20260510014504 | 52 | 160 | 1.0 | 5.0 | 0.00 | 0.67 | 0.56 | 87 | 1008.9 |
| 20260510013351 | 53 | 167 | 4.0 | 7.0 | 0.00 | 0.67 | 0.57 | 87 | 1008.0 |
| 20260510013103 | 52 | 159 | 3.0 | 8.0 | 0.00 | 0.67 | 0.56 | 87 | 1008.5 |
| 20260510012452 | 53 | 168 | 4.0 | 10.0 | 0.00 | 0.67 | 0.57 | 87 | 1007.8 |
| 20260510011604 | 53 | 170 | 5.0 | 10.0 | 0.00 | 0.67 | 0.57 | 86 | 1007.4 |
| 20260510011503 | 53 | 188 | 4.0 | 9.0 | 0.00 | 0.67 | 0.56 | 87 | 1008.0 |
| 20260510010651 | 53 | 167 | 4.0 | 9.0 | 0.00 | 0.67 | 0.57 | 88 | 1007.3 |
| 20260510010105 | 53 | 160 | 3.0 | 8.0 | 0.00 | 0.67 | 0.56 | 89 | 1007.9 |
| 20260510005752 | 53 | 167 | 5.0 | 7.0 | 0.00 | 0.67 | 0.57 | 89 | 1007.3 |
| 20260510004852 | 53 | 166 | 4.0 | 7.0 | 0.00 | 0.67 | 0.57 | 89 | 1007.3 |
| 20260510004502 | 52 | 141 | 3.0 | 7.0 | 0.00 | 0.69 | 0.56 | 89 | 1008.0 |
| 20260510003951 | 53 | 165 | 3.0 | 6.0 | 0.00 | 0.68 | 0.57 | 89 | 1007.5 |
| 20260510003109 | 52 | 187 | 2.0 | 7.0 | 0.00 | 0.69 | 0.56 | 91 | 1008.0 |
| 20260510003051 | 53 | 168 | 3.0 | 7.0 | 0.00 | 0.69 | 0.57 | 91 | 1007.4 |
| 20260510002151 | 53 | 162 | 3.0 | 4.0 | 0.00 | 0.69 | 0.57 | 92 | 1007.2 |
| 20260510001508 | 52 | 153 | 2.0 | 4.0 | 0.00 | 0.69 | 0.56 | 92 | 1007.9 |
| 20260510000351 | 53 | 167 | 3.0 | 5.0 | 0.00 | 0.69 | 0.57 | 91 | 1007.3 |
| 20260509235451 | 53 | 174 | 4.0 | 7.0 | 0.00 | 0.69 | 0.57 | 91 | 1007.1 |
| 20260509234551 | 54 | 170 | 3.0 | 7.0 | 0.00 | 0.69 | 0.57 | 91 | 1007.0 |
| 20260509234506 | 53 | 165 | 3.0 | 7.0 | 0.00 | 0.69 | 0.56 | 91 | 1007.6 |
| 20260509233651 | 54 | 168 | 4.0 | 9.0 | 0.00 | 0.69 | 0.57 | 91 | 1007.0 |
| 20260509233104 | 53 | 163 | 3.0 | 9.0 | 0.00 | 0.69 | 0.56 | 90 | 1007.5 |
| 20260509232751 | 54 | 164 | 3.0 | 7.0 | 0.00 | 0.69 | 0.57 | 90 | 1006.8 |
| 20260509231851 | 54 | 167 | 3.0 | 8.0 | 0.00 | 0.69 | 0.57 | 90 | 1006.8 |
| 20260509231504 | 54 | 163 | 3.0 | 8.0 | 0.00 | 0.69 | 0.56 | 89 | 1007.3 |
| 20260509230952 | 55 | 167 | 3.0 | 6.0 | 0.00 | 0.69 | 0.57 | 89 | 1006.8 |
| 20260509230108 | 55 | 167 | 2.0 | 5.0 | 0.00 | 0.69 | 0.56 | 89 | 1007.1 |
| 20260509230051 | 55 | 157 | 2.0 | 5.0 | 0.00 | 0.69 | 0.57 | 89 | 1006.8 |
| 20260509225151 | 55 | 166 | 3.0 | 7.0 | 0.00 | 0.69 | 0.57 | 89 | 1006.7 |
| 20260509224503 | 55 | 155 | 4.0 | 11.0 | 0.00 | 0.69 | 0.56 | 89 | 1007.0 |
| 20260509224251 | 55 | 167 | 4.0 | 11.0 | 0.00 | 0.69 | 0.57 | 89 | 1006.5 |
| 20260509223352 | 55 | 157 | 3.0 | 8.0 | 0.00 | 0.69 | 0.57 | 90 | 1006.4 |
| 20260509223102 | 54 | 142 | 2.0 | 8.0 | 0.00 | 0.69 | 0.56 | 90 | 1007.0 |
| 20260509222451 | 55 | 157 | 3.0 | 8.0 | 0.00 | 0.69 | 0.57 | 90 | 1006.7 |
| 20260509221552 | 54 | 158 | 3.0 | 6.0 | 0.00 | 0.69 | 0.57 | 91 | 1006.8 |
| 20260509221504 | 54 | 163 | 2.0 | 6.0 | 0.00 | 0.69 | 0.56 | 91 | 1007.3 |
| 20260509220651 | 54 | 161 | 3.0 | 6.0 | 0.00 | 0.69 | 0.57 | 90 | 1006.7 |
| 20260509220105 | 54 | 150 | 2.0 | 6.0 | 0.00 | 0.69 | 0.56 | 90 | 1007.2 |
| 20260509215752 | 55 | 156 | 3.0 | 7.0 | 0.00 | 0.69 | 0.57 | 90 | 1006.8 |